createdAt,value
2017-09-20T00:00:00.571Z,56.55
2017-09-20T00:00:04.825Z,56.80
2017-09-20T00:00:09.082Z,57.07
2017-09-20T00:00:13.324Z,57.05
2017-09-20T00:00:17.574Z,57.50
2017-09-20T00:00:21.862Z,57.25
2017-09-20T00:00:26.125Z,57.03
2017-09-20T00:00:30.384Z,57.15
2017-09-20T00:00:34.622Z,57.55
2017-09-20T00:00:38.879Z,57.70
2017-09-20T00:00:43.160Z,57.00
2017-09-20T00:00:47.705Z,57.10
2017-09-20T00:00:51.980Z,57.00
2017-09-20T00:00:56.236Z,57.20
2017-09-20T00:01:00.487Z,57.20
2017-09-20T00:01:04.724Z,56.83
2017-09-20T00:01:08.998Z,56.65
2017-09-20T00:01:13.229Z,56.20
2017-09-20T00:01:17.494Z,56.00
2017-09-20T00:01:22.516Z,56.27
2017-09-20T00:01:27.535Z,56.20
2017-09-20T00:01:31.785Z,55.93
2017-09-20T00:01:36.038Z,55.95
2017-09-20T00:01:40.295Z,56.05
2017-09-20T00:01:44.557Z,55.83
2017-09-20T00:01:48.823Z,55.90
2017-09-20T00:01:53.080Z,56.20
2017-09-20T00:01:57.335Z,56.30
2017-09-20T00:02:01.596Z,56.43
2017-09-20T00:02:05.945Z,56.55
2017-09-20T00:02:10.191Z,56.45
2017-09-20T00:02:14.438Z,56.87
2017-09-20T00:02:19.452Z,57.15
2017-09-20T00:02:23.709Z,57.23
2017-09-20T00:02:27.942Z,57.00
2017-09-20T00:02:32.191Z,57.15
2017-09-20T00:02:36.448Z,56.70
2017-09-20T00:02:40.702Z,56.40
2017-09-20T00:02:44.949Z,56.30
2017-09-20T00:02:49.194Z,56.40
2017-09-20T00:02:53.494Z,56.37
2017-09-20T00:02:57.721Z,55.95
2017-09-20T00:03:01.966Z,55.80
2017-09-20T00:03:06.974Z,56.17
2017-09-20T00:03:11.992Z,56.57
2017-09-20T00:03:16.247Z,56.33
2017-09-20T00:03:20.499Z,55.40
2017-09-20T00:03:25.531Z,55.25
2017-09-20T00:03:29.960Z,55.50
2017-09-20T00:03:34.212Z,55.57
2017-09-20T00:03:38.453Z,55.95
2017-09-20T00:03:42.701Z,56.40
2017-09-20T00:03:46.948Z,56.30
2017-09-20T00:03:51.199Z,56.00
2017-09-20T00:03:55.460Z,56.00
2017-09-20T00:03:59.723Z,56.15
2017-09-20T00:04:04.733Z,56.10
2017-09-20T00:04:09.764Z,55.73
2017-09-20T00:04:14.777Z,55.57
2017-09-20T00:04:19.808Z,55.50
2017-09-20T00:04:24.812Z,55.77
2017-09-20T00:04:29.813Z,55.33
2017-09-20T00:04:34.840Z,55.33
2017-09-20T00:04:39.106Z,55.00
2017-09-20T00:04:43.351Z,54.70
2017-09-20T00:04:48.391Z,54.95
2017-09-20T00:04:52.612Z,55.00
2017-09-20T00:04:56.877Z,55.00
2017-09-20T00:05:01.136Z,54.90
2017-09-20T00:05:05.375Z,54.80
2017-09-20T00:05:10.394Z,54.85
2017-09-20T00:05:14.658Z,54.77
2017-09-20T00:05:18.925Z,54.80
2017-09-20T00:05:23.195Z,55.00
2017-09-20T00:05:28.198Z,55.30
2017-09-20T00:05:33.205Z,55.07
2017-09-20T00:05:38.241Z,55.37
2017-09-20T00:05:43.270Z,55.20
2017-09-20T00:05:47.523Z,55.38
2017-09-20T00:05:51.778Z,55.40
2017-09-20T00:05:56.014Z,55.40
2017-09-20T00:06:00.275Z,55.30
2017-09-20T00:06:04.537Z,55.03
2017-09-20T00:06:08.769Z,54.80
2017-09-20T00:06:13.035Z,54.55
2017-09-20T00:06:17.284Z,54.60
2017-09-20T00:06:21.525Z,54.50
2017-09-20T00:06:25.771Z,54.40
2017-09-20T00:06:30.005Z,55.30
2017-09-20T00:06:34.273Z,55.80
2017-09-20T00:06:38.524Z,56.10
2017-09-20T00:06:42.778Z,56.65
2017-09-20T00:06:47.014Z,56.40
2017-09-20T00:06:51.272Z,56.33
2017-09-20T00:06:55.541Z,56.10
2017-09-20T00:06:59.799Z,55.85
2017-09-20T00:07:04.029Z,56.00
2017-09-20T00:07:08.304Z,56.17
2017-09-20T00:07:12.549Z,56.35
2017-09-20T00:07:16.815Z,56.65
2017-09-20T00:07:21.065Z,56.35
2017-09-20T00:07:26.099Z,56.27
2017-09-20T00:07:30.360Z,56.00
2017-09-20T00:07:34.618Z,55.85
2017-09-20T00:07:38.844Z,56.05
2017-09-20T00:07:43.866Z,55.70
2017-09-20T00:07:48.127Z,55.77
2017-09-20T00:07:52.379Z,56.20
2017-09-20T00:07:56.617Z,56.45
2017-09-20T00:08:00.869Z,56.60
2017-09-20T00:08:05.140Z,56.73
2017-09-20T00:08:09.400Z,56.70
2017-09-20T00:08:14.401Z,56.80
2017-09-20T00:08:18.650Z,56.83
2017-09-20T00:08:22.901Z,56.90
2017-09-20T00:08:27.164Z,56.35
2017-09-20T00:08:31.419Z,56.20
2017-09-20T00:08:36.444Z,55.75
2017-09-20T00:08:41.479Z,55.17
2017-09-20T00:08:45.739Z,54.63
2017-09-20T00:08:49.993Z,54.00
2017-09-20T00:08:54.255Z,54.10
2017-09-20T00:08:59.258Z,54.00
2017-09-20T00:09:04.290Z,54.00
2017-09-20T00:09:09.285Z,53.80
2017-09-20T00:09:13.543Z,53.70
2017-09-20T00:09:17.811Z,53.63
2017-09-20T00:09:22.834Z,53.70
2017-09-20T00:09:27.849Z,53.47
2017-09-20T00:09:32.879Z,53.20
2017-09-20T00:09:37.136Z,52.87
2017-09-20T00:09:41.388Z,53.30
2017-09-20T00:09:45.651Z,53.70
2017-09-20T00:09:49.903Z,53.55
2017-09-20T00:09:54.159Z,53.25
2017-09-20T00:09:59.165Z,53.70
2017-09-20T00:10:03.439Z,53.80
2017-09-20T00:10:07.685Z,53.90
2017-09-20T00:10:12.728Z,54.00
2017-09-20T00:10:16.991Z,54.20
2017-09-20T00:10:21.226Z,54.35
2017-09-20T00:10:25.501Z,54.30
2017-09-20T00:10:30.524Z,54.50
2017-09-20T00:10:35.556Z,54.67
2017-09-20T00:10:39.789Z,54.93
2017-09-20T00:10:44.034Z,54.45
2017-09-20T00:10:49.061Z,54.33
2017-09-20T00:10:54.076Z,53.80
2017-09-20T00:10:59.083Z,53.40
2017-09-20T00:11:04.085Z,53.40
2017-09-20T00:11:08.344Z,53.77
2017-09-20T00:11:12.599Z,53.45
2017-09-20T00:11:16.851Z,52.95
2017-09-20T00:11:21.101Z,52.93
2017-09-20T00:11:26.116Z,53.20
2017-09-20T00:11:30.405Z,52.90
2017-09-20T00:11:34.653Z,52.35
2017-09-20T00:11:38.887Z,52.10
2017-09-20T00:11:43.162Z,52.23
2017-09-20T00:11:47.417Z,52.40
2017-09-20T00:11:51.650Z,52.75
2017-09-20T00:11:55.909Z,52.90
2017-09-20T00:12:00.175Z,52.40
2017-09-20T00:12:04.427Z,51.75
2017-09-20T00:12:09.441Z,51.60
2017-09-20T00:12:13.676Z,51.80
2017-09-20T00:12:17.941Z,52.07
2017-09-20T00:12:22.181Z,52.00
2017-09-20T00:12:26.447Z,51.90
2017-09-20T00:12:31.466Z,52.00
2017-09-20T00:12:36.475Z,52.60
2017-09-20T00:12:41.477Z,52.70
2017-09-20T00:12:45.735Z,52.65
2017-09-20T00:12:49.980Z,52.80
2017-09-20T00:12:54.249Z,52.75
2017-09-20T00:12:58.479Z,53.05
2017-09-20T00:13:02.714Z,52.97
2017-09-20T00:13:06.979Z,52.90
2017-09-20T00:13:11.225Z,52.80
2017-09-20T00:13:15.461Z,52.85
2017-09-20T00:13:19.722Z,52.23
2017-09-20T00:13:23.961Z,52.00
2017-09-20T00:13:28.215Z,52.20
2017-09-20T00:13:32.483Z,52.25
2017-09-20T00:13:36.722Z,52.53
2017-09-20T00:13:40.981Z,52.25
2017-09-20T00:13:45.232Z,52.15
2017-09-20T00:13:49.481Z,51.70
2017-09-20T00:13:53.734Z,51.45
2017-09-20T00:13:57.980Z,51.55
2017-09-20T00:14:02.228Z,51.85
2017-09-20T00:14:06.491Z,52.40
2017-09-20T00:14:10.749Z,52.00
2017-09-20T00:14:14.995Z,51.90
2017-09-20T00:14:19.255Z,51.90
2017-09-20T00:14:23.505Z,52.17
2017-09-20T00:14:28.540Z,52.05
2017-09-20T00:14:32.796Z,52.00
2017-09-20T00:14:37.044Z,51.95
2017-09-20T00:14:41.288Z,52.27
2017-09-20T00:14:45.577Z,52.55
2017-09-20T00:14:49.817Z,52.80
2017-09-20T00:14:54.820Z,52.70
2017-09-20T00:14:59.079Z,51.87
2017-09-20T00:15:03.314Z,50.77
2017-09-20T00:15:07.552Z,50.20
2017-09-20T00:15:11.807Z,50.45
2017-09-20T00:15:16.055Z,50.15
2017-09-20T00:15:20.301Z,49.80
2017-09-20T00:15:24.569Z,49.60
2017-09-20T00:15:28.820Z,48.90
2017-09-20T00:15:33.079Z,48.57
2017-09-20T00:15:37.344Z,48.10
2017-09-20T00:15:42.357Z,47.60
2017-09-20T00:15:47.366Z,47.13
2017-09-20T00:15:51.641Z,47.33
2017-09-20T00:15:55.885Z,47.30
2017-09-20T00:16:00.133Z,47.13
2017-09-20T00:16:04.382Z,47.45
2017-09-20T00:16:09.410Z,47.50
2017-09-20T00:16:14.404Z,47.60
2017-09-20T00:16:19.435Z,47.80
2017-09-20T00:16:23.653Z,47.53
2017-09-20T00:16:27.918Z,47.03
2017-09-20T00:16:32.152Z,46.90
2017-09-20T00:16:36.398Z,46.90
2017-09-20T00:16:40.642Z,46.55
2017-09-20T00:16:44.919Z,46.50
2017-09-20T00:16:49.184Z,46.40
2017-09-20T00:16:54.212Z,46.40
2017-09-20T00:16:58.458Z,46.40
2017-09-20T00:17:03.470Z,46.60
2017-09-20T00:17:08.476Z,46.17
2017-09-20T00:17:13.481Z,45.80
2017-09-20T00:17:17.744Z,46.37
2017-09-20T00:17:21.985Z,47.05
2017-09-20T00:17:26.238Z,47.70
2017-09-20T00:17:30.513Z,47.80
2017-09-20T00:17:35.527Z,47.80
2017-09-20T00:17:40.551Z,48.27
2017-09-20T00:17:45.573Z,48.63
2017-09-20T00:17:49.828Z,48.40
2017-09-20T00:17:54.084Z,48.20
2017-09-20T00:17:58.327Z,48.15
2017-09-20T00:18:02.585Z,48.30
2017-09-20T00:18:06.843Z,48.20
2017-09-20T00:18:11.107Z,47.90
2017-09-20T00:18:15.344Z,47.10
2017-09-20T00:18:19.592Z,46.35
2017-09-20T00:18:23.832Z,45.85
2017-09-20T00:18:28.092Z,45.20
2017-09-20T00:18:32.355Z,45.00
2017-09-20T00:18:37.366Z,45.15
2017-09-20T00:18:42.385Z,45.27
2017-09-20T00:18:47.413Z,44.97
2017-09-20T00:18:52.472Z,45.10
2017-09-20T00:18:56.727Z,45.17
2017-09-20T00:19:01.729Z,45.10
2017-09-20T00:19:05.969Z,45.10
2017-09-20T00:19:10.221Z,45.37
2017-09-20T00:19:14.499Z,45.90
2017-09-20T00:19:18.729Z,46.10
2017-09-20T00:19:22.985Z,46.10
2017-09-20T00:19:27.241Z,46.70
2017-09-20T00:19:32.263Z,47.10
2017-09-20T00:19:36.525Z,46.90
2017-09-20T00:19:41.539Z,46.10
2017-09-20T00:19:45.792Z,45.77
2017-09-20T00:19:50.795Z,45.20
2017-09-20T00:19:55.800Z,44.83
2017-09-20T00:20:00.053Z,44.60
2017-09-20T00:20:04.298Z,44.70
2017-09-20T00:20:08.536Z,44.50
2017-09-20T00:20:12.826Z,44.00
2017-09-20T00:20:17.855Z,44.00
2017-09-20T00:20:22.111Z,44.00
2017-09-20T00:20:26.369Z,43.70
2017-09-20T00:20:30.612Z,43.60
2017-09-20T00:20:34.877Z,43.20
2017-09-20T00:20:39.113Z,43.25
2017-09-20T00:20:43.357Z,43.55
2017-09-20T00:20:47.620Z,43.65
2017-09-20T00:20:51.887Z,43.93
2017-09-20T00:20:56.129Z,44.30
2017-09-20T00:21:01.145Z,44.60
2017-09-20T00:21:05.396Z,44.67
2017-09-20T00:21:09.655Z,44.80
2017-09-20T00:21:14.665Z,44.95
2017-09-20T00:21:19.696Z,44.90
2017-09-20T00:21:24.718Z,44.87
2017-09-20T00:21:29.732Z,44.70
2017-09-20T00:21:34.759Z,44.77
2017-09-20T00:21:39.779Z,44.63
2017-09-20T00:21:44.029Z,44.80
2017-09-20T00:21:48.274Z,44.95
2017-09-20T00:21:53.273Z,44.60
2017-09-20T00:21:57.550Z,44.27
2017-09-20T00:22:02.615Z,44.20
2017-09-20T00:22:06.867Z,44.13
2017-09-20T00:22:11.108Z,44.30
2017-09-20T00:22:16.113Z,43.73
2017-09-20T00:22:20.363Z,43.33
2017-09-20T00:22:24.615Z,43.55
2017-09-20T00:22:29.631Z,43.35
2017-09-20T00:22:33.866Z,43.20
2017-09-20T00:22:38.119Z,42.85
2017-09-20T00:22:42.384Z,42.43
2017-09-20T00:22:46.631Z,42.55
2017-09-20T00:22:50.869Z,42.80
2017-09-20T00:22:55.131Z,42.70
2017-09-20T00:22:59.368Z,42.50
2017-09-20T00:23:03.618Z,42.20
2017-09-20T00:23:07.862Z,42.20
2017-09-20T00:23:12.131Z,42.10
2017-09-20T00:23:16.382Z,42.20
2017-09-20T00:23:20.731Z,42.20
2017-09-20T00:23:24.972Z,42.37
2017-09-20T00:23:29.236Z,42.60
2017-09-20T00:23:34.242Z,42.55
2017-09-20T00:23:38.491Z,42.80
2017-09-20T00:23:42.733Z,42.75
2017-09-20T00:23:46.990Z,42.50
2017-09-20T00:23:51.247Z,42.50
2017-09-20T00:23:55.477Z,42.60
2017-09-20T00:23:59.726Z,42.85
2017-09-20T00:24:03.994Z,42.70
2017-09-20T00:24:08.220Z,42.80
2017-09-20T00:24:12.486Z,42.95
2017-09-20T00:24:16.727Z,43.30
2017-09-20T00:24:20.992Z,43.37
2017-09-20T00:24:25.225Z,43.05
2017-09-20T00:24:29.469Z,43.00
2017-09-20T00:24:33.717Z,43.33
2017-09-20T00:24:37.969Z,43.30
2017-09-20T00:24:42.235Z,43.70
2017-09-20T00:24:46.485Z,43.55
2017-09-20T00:24:50.759Z,43.60
2017-09-20T00:24:55.773Z,43.75
2017-09-20T00:25:00.793Z,43.63
2017-09-20T00:25:05.824Z,43.77
2017-09-20T00:25:10.840Z,43.80
2017-09-20T00:25:15.853Z,43.70
2017-09-20T00:25:20.861Z,44.10
2017-09-20T00:25:25.889Z,44.00
2017-09-20T00:25:30.899Z,44.00
2017-09-20T00:25:35.907Z,43.90
2017-09-20T00:25:40.153Z,43.70
2017-09-20T00:25:44.389Z,43.70
2017-09-20T00:25:48.680Z,43.60
2017-09-20T00:25:53.692Z,43.45
2017-09-20T00:25:57.980Z,43.53
2017-09-20T00:26:02.233Z,44.00
2017-09-20T00:26:06.499Z,43.57
2017-09-20T00:26:10.741Z,44.05
2017-09-20T00:26:15.000Z,44.15
2017-09-20T00:26:19.239Z,43.77
2017-09-20T00:26:24.267Z,44.10
2017-09-20T00:26:29.301Z,44.10
2017-09-20T00:26:33.552Z,44.07
2017-09-20T00:26:37.836Z,44.00
2017-09-20T00:26:42.067Z,44.00
2017-09-20T00:26:46.335Z,44.23
2017-09-20T00:26:50.608Z,44.75
2017-09-20T00:26:54.864Z,44.55
2017-09-20T00:26:59.114Z,44.33
2017-09-20T00:27:03.363Z,44.85
2017-09-20T00:27:07.612Z,45.15
2017-09-20T00:27:11.844Z,44.70
2017-09-20T00:27:16.110Z,44.77
2017-09-20T00:27:20.344Z,44.80
2017-09-20T00:27:24.595Z,44.75
2017-09-20T00:27:28.833Z,44.80
2017-09-20T00:27:33.102Z,45.10
2017-09-20T00:27:37.345Z,45.10
2017-09-20T00:27:41.589Z,45.10
2017-09-20T00:27:46.609Z,45.25
2017-09-20T00:27:51.604Z,45.00
2017-09-20T00:27:56.640Z,45.00
2017-09-20T00:28:01.642Z,44.43
2017-09-20T00:28:07.122Z,43.80
2017-09-20T00:28:11.356Z,43.53
2017-09-20T00:28:15.601Z,42.80
2017-09-20T00:28:19.850Z,42.53
2017-09-20T00:28:24.091Z,42.40
2017-09-20T00:28:28.338Z,42.40
2017-09-20T00:28:33.350Z,42.30
2017-09-20T00:28:37.599Z,42.40
2017-09-20T00:28:42.610Z,42.30
2017-09-20T00:28:47.622Z,41.83
2017-09-20T00:28:51.875Z,41.90
2017-09-20T00:28:56.132Z,42.30
2017-09-20T00:29:00.379Z,42.40
2017-09-20T00:29:04.643Z,42.53
2017-09-20T00:29:08.877Z,42.75
2017-09-20T00:29:13.126Z,43.25
2017-09-20T00:29:17.372Z,43.20
2017-09-20T00:29:21.631Z,43.17
2017-09-20T00:29:26.649Z,43.10
2017-09-20T00:29:31.679Z,42.67
2017-09-20T00:29:36.720Z,42.30
2017-09-20T00:29:40.954Z,42.03
2017-09-20T00:29:45.215Z,41.75
2017-09-20T00:29:49.467Z,41.57
2017-09-20T00:29:53.709Z,41.25
2017-09-20T00:29:57.976Z,41.25
2017-09-20T00:30:02.219Z,40.75
2017-09-20T00:30:06.475Z,40.33
2017-09-20T00:30:10.755Z,40.00
2017-09-20T00:30:14.998Z,40.00
2017-09-20T00:30:19.245Z,39.80
2017-09-20T00:30:23.511Z,39.85
2017-09-20T00:30:27.802Z,40.00
2017-09-20T00:30:32.795Z,40.35
2017-09-20T00:30:37.042Z,40.73
2017-09-20T00:30:41.285Z,41.00
2017-09-20T00:30:45.548Z,41.45
2017-09-20T00:30:49.795Z,42.05
2017-09-20T00:30:54.089Z,42.20
2017-09-20T00:30:58.323Z,42.20
2017-09-20T00:31:02.582Z,43.05
2017-09-20T00:31:06.818Z,43.45
2017-09-20T00:31:11.843Z,43.50
2017-09-20T00:31:16.119Z,44.00
2017-09-20T00:31:20.349Z,44.70
2017-09-20T00:31:24.610Z,44.45
2017-09-20T00:31:28.854Z,44.65
2017-09-20T00:31:33.140Z,44.70
2017-09-20T00:31:38.159Z,44.55
2017-09-20T00:31:43.161Z,44.10
2017-09-20T00:31:48.161Z,43.90
2017-09-20T00:31:52.418Z,43.50
2017-09-20T00:31:56.678Z,43.60
2017-09-20T00:32:00.936Z,43.10
2017-09-20T00:32:05.164Z,42.95
2017-09-20T00:32:09.410Z,42.80
2017-09-20T00:32:13.659Z,42.70
2017-09-20T00:32:17.910Z,42.40
2017-09-20T00:32:22.166Z,42.25
2017-09-20T00:32:26.405Z,42.50
2017-09-20T00:32:30.655Z,42.23
2017-09-20T00:32:34.916Z,42.40
2017-09-20T00:32:39.162Z,42.75
2017-09-20T00:32:43.404Z,42.90
2017-09-20T00:32:47.664Z,43.17
2017-09-20T00:32:51.900Z,43.30
2017-09-20T00:32:56.149Z,43.55
2017-09-20T00:33:00.393Z,43.85
2017-09-20T00:33:05.438Z,43.77
2017-09-20T00:33:09.713Z,43.90
2017-09-20T00:33:14.752Z,44.15
2017-09-20T00:33:18.989Z,44.17
2017-09-20T00:33:23.221Z,44.55
2017-09-20T00:33:28.233Z,44.40
2017-09-20T00:33:33.263Z,44.43
2017-09-20T00:33:38.271Z,44.57
2017-09-20T00:33:43.281Z,44.63
2017-09-20T00:33:48.306Z,44.67
2017-09-20T00:33:53.325Z,44.80
2017-09-20T00:33:57.575Z,44.53
2017-09-20T00:34:01.826Z,44.30
2017-09-20T00:34:06.852Z,44.60
2017-09-20T00:34:11.105Z,44.60
2017-09-20T00:34:15.358Z,44.27
2017-09-20T00:34:20.374Z,44.10
2017-09-20T00:34:24.631Z,44.20
2017-09-20T00:34:28.892Z,44.80
2017-09-20T00:34:33.152Z,45.07
2017-09-20T00:34:37.401Z,45.00
2017-09-20T00:34:41.644Z,44.85
2017-09-20T00:34:45.913Z,44.85
2017-09-20T00:34:50.179Z,44.30
2017-09-20T00:34:54.436Z,44.20
2017-09-20T00:34:58.687Z,44.20
2017-09-20T00:35:02.930Z,44.15
2017-09-20T00:35:07.207Z,43.80
2017-09-20T00:35:11.453Z,44.15
2017-09-20T00:35:15.690Z,44.10
2017-09-20T00:35:19.950Z,44.53
2017-09-20T00:35:24.215Z,44.10
2017-09-20T00:35:28.481Z,43.25
2017-09-20T00:35:32.738Z,42.75
2017-09-20T00:35:37.003Z,42.97
2017-09-20T00:35:41.257Z,42.75
2017-09-20T00:35:45.493Z,42.90
2017-09-20T00:35:49.766Z,43.30
2017-09-20T00:35:54.786Z,43.47
2017-09-20T00:35:59.803Z,43.90
2017-09-20T00:36:04.835Z,44.10
2017-09-20T00:36:09.868Z,44.20
2017-09-20T00:36:14.121Z,44.00
2017-09-20T00:36:18.373Z,43.45
2017-09-20T00:36:22.656Z,43.25
2017-09-20T00:36:26.911Z,43.83
2017-09-20T00:36:31.140Z,44.45
2017-09-20T00:36:36.165Z,44.55
2017-09-20T00:36:41.183Z,44.50
2017-09-20T00:36:46.183Z,44.67
2017-09-20T00:36:50.439Z,44.30
2017-09-20T00:36:54.737Z,44.47
2017-09-20T00:36:58.989Z,44.40
2017-09-20T00:37:04.011Z,44.50
2017-09-20T00:37:09.020Z,44.50
2017-09-20T00:37:13.261Z,44.67
2017-09-20T00:37:17.512Z,44.93
2017-09-20T00:37:21.757Z,45.40
2017-09-20T00:37:26.002Z,45.15
2017-09-20T00:37:30.251Z,44.90
2017-09-20T00:37:34.504Z,44.83
2017-09-20T00:37:38.764Z,44.90
2017-09-20T00:37:43.011Z,45.05
2017-09-20T00:37:47.268Z,45.10
2017-09-20T00:37:51.531Z,45.00
2017-09-20T00:37:56.542Z,45.00
2017-09-20T00:38:01.550Z,44.80
2017-09-20T00:38:05.798Z,45.17
2017-09-20T00:38:10.056Z,45.00
2017-09-20T00:38:14.301Z,44.83
2017-09-20T00:38:18.554Z,44.85
2017-09-20T00:38:22.818Z,44.70
2017-09-20T00:38:27.062Z,44.75
2017-09-20T00:38:32.072Z,44.63
2017-09-20T00:38:36.326Z,44.50
2017-09-20T00:38:40.582Z,44.25
2017-09-20T00:38:45.596Z,44.20
2017-09-20T00:38:49.844Z,43.93
2017-09-20T00:38:54.100Z,43.73
2017-09-20T00:38:59.132Z,43.50
2017-09-20T00:39:04.144Z,43.33
2017-09-20T00:39:09.161Z,43.43
2017-09-20T00:39:14.214Z,43.60
2017-09-20T00:39:18.463Z,43.67
2017-09-20T00:39:22.706Z,43.80
2017-09-20T00:39:26.966Z,44.07
2017-09-20T00:39:31.205Z,43.90
2017-09-20T00:39:35.463Z,44.00
2017-09-20T00:39:39.732Z,44.00
2017-09-20T00:39:43.986Z,44.10
2017-09-20T00:39:49.027Z,44.55
2017-09-20T00:39:53.307Z,45.07
2017-09-20T00:39:58.419Z,45.45
2017-09-20T00:40:03.425Z,45.83
2017-09-20T00:40:07.672Z,45.90
2017-09-20T00:40:11.917Z,45.87
2017-09-20T00:40:16.213Z,45.80
2017-09-20T00:40:20.457Z,45.85
2017-09-20T00:40:24.713Z,45.60
2017-09-20T00:40:28.982Z,46.05
2017-09-20T00:40:33.227Z,46.50
2017-09-20T00:40:37.474Z,46.85
2017-09-20T00:40:41.747Z,46.63
2017-09-20T00:40:46.776Z,46.45
2017-09-20T00:40:51.013Z,46.03
2017-09-20T00:40:55.295Z,45.80
2017-09-20T00:40:59.548Z,45.50
2017-09-20T00:41:04.564Z,45.55
2017-09-20T00:41:08.823Z,45.37
2017-09-20T00:41:13.082Z,45.20
2017-09-20T00:41:18.111Z,45.10
2017-09-20T00:41:22.366Z,45.22
2017-09-20T00:41:26.613Z,44.85
2017-09-20T00:41:30.871Z,44.20
2017-09-20T00:41:35.114Z,43.45
2017-09-20T00:41:39.350Z,43.40
2017-09-20T00:41:43.601Z,43.20
2017-09-20T00:41:47.921Z,43.20
2017-09-20T00:41:52.198Z,43.55
2017-09-20T00:41:57.219Z,43.53
2017-09-20T00:42:02.226Z,43.13
2017-09-20T00:42:07.255Z,43.20
2017-09-20T00:42:12.265Z,43.13
2017-09-20T00:42:17.285Z,43.40
2017-09-20T00:42:22.309Z,43.30
2017-09-20T00:42:27.324Z,43.27
2017-09-20T00:42:32.355Z,43.47
2017-09-20T00:42:37.375Z,43.77
2017-09-20T00:42:41.613Z,44.27
2017-09-20T00:42:45.872Z,44.75
2017-09-20T00:42:50.125Z,44.90
2017-09-20T00:42:54.378Z,45.15
2017-09-20T00:42:58.633Z,45.20
2017-09-20T00:43:02.870Z,45.20
2017-09-20T00:43:07.160Z,45.23
2017-09-20T00:43:12.192Z,45.65
2017-09-20T00:43:17.207Z,45.70
2017-09-20T00:43:22.216Z,45.77
2017-09-20T00:43:27.235Z,45.87
2017-09-20T00:43:32.246Z,45.87
2017-09-20T00:43:37.274Z,45.93
2017-09-20T00:43:42.273Z,45.70
2017-09-20T00:43:46.521Z,45.47
2017-09-20T00:43:50.766Z,45.10
2017-09-20T00:43:55.011Z,44.65
2017-09-20T00:43:59.263Z,44.90
2017-09-20T00:44:03.501Z,45.10
2017-09-20T00:44:07.775Z,45.20
2017-09-20T00:44:12.027Z,45.05
2017-09-20T00:44:16.291Z,45.10
2017-09-20T00:44:21.292Z,45.10
2017-09-20T00:44:25.555Z,45.13
2017-09-20T00:44:29.817Z,45.40
2017-09-20T00:44:34.850Z,45.45
2017-09-20T00:44:39.177Z,45.40
2017-09-20T00:44:43.459Z,45.70
2017-09-20T00:44:47.716Z,45.70
2017-09-20T00:44:51.999Z,45.95
2017-09-20T00:44:56.229Z,45.95
2017-09-20T00:45:01.259Z,45.90
2017-09-20T00:45:05.546Z,45.70
2017-09-20T00:45:10.601Z,45.55
2017-09-20T00:45:14.855Z,45.57
2017-09-20T00:45:19.124Z,45.65
2017-09-20T00:45:23.402Z,46.00
2017-09-20T00:45:27.647Z,45.80
2017-09-20T00:45:31.894Z,45.90
2017-09-20T00:45:36.139Z,46.15
2017-09-20T00:45:40.404Z,46.17
2017-09-20T00:45:44.642Z,45.70
2017-09-20T00:45:48.900Z,45.90
2017-09-20T00:45:53.141Z,46.15
2017-09-20T00:45:57.407Z,46.30
2017-09-20T00:46:01.648Z,46.50
2017-09-20T00:46:05.905Z,46.45
2017-09-20T00:46:10.187Z,46.77
2017-09-20T00:46:14.413Z,47.00
2017-09-20T00:46:18.672Z,46.85
2017-09-20T00:46:23.697Z,46.40
2017-09-20T00:46:28.703Z,46.47
2017-09-20T00:46:33.713Z,46.90
2017-09-20T00:46:37.992Z,46.87
2017-09-20T00:46:42.225Z,47.33
2017-09-20T00:46:47.251Z,47.70
2017-09-20T00:46:52.257Z,47.77
2017-09-20T00:46:57.280Z,48.00
2017-09-20T00:47:02.303Z,47.83
2017-09-20T00:47:07.301Z,48.17
2017-09-20T00:47:11.544Z,48.43
2017-09-20T00:47:15.799Z,48.70
2017-09-20T00:47:20.055Z,48.70
2017-09-20T00:47:24.319Z,49.00
2017-09-20T00:47:29.317Z,48.95
2017-09-20T00:47:33.560Z,48.70
2017-09-20T00:47:37.816Z,49.07
2017-09-20T00:47:42.083Z,49.00
2017-09-20T00:47:46.335Z,49.00
2017-09-20T00:47:51.352Z,48.55
2017-09-20T00:47:56.375Z,48.50
2017-09-20T00:48:01.374Z,48.90
2017-09-20T00:48:07.090Z,49.20
2017-09-20T00:48:11.339Z,49.08
2017-09-20T00:48:15.595Z,48.70
2017-09-20T00:48:19.844Z,48.80
2017-09-20T00:48:24.085Z,48.70
2017-09-20T00:48:28.347Z,48.80
2017-09-20T00:48:32.654Z,48.93
2017-09-20T00:48:36.882Z,48.95
2017-09-20T00:48:41.492Z,48.60
2017-09-20T00:48:45.750Z,48.70
2017-09-20T00:48:49.995Z,49.55
2017-09-20T00:48:54.277Z,49.75
2017-09-20T00:48:58.535Z,49.47
2017-09-20T00:49:03.555Z,49.40
2017-09-20T00:49:08.578Z,49.40
2017-09-20T00:49:12.840Z,49.00
2017-09-20T00:49:17.086Z,48.70
2017-09-20T00:49:21.338Z,48.80
2017-09-20T00:49:25.601Z,48.90
2017-09-20T00:49:29.862Z,48.75
2017-09-20T00:49:34.110Z,48.35
2017-09-20T00:49:38.381Z,48.60
2017-09-20T00:49:43.393Z,48.75
2017-09-20T00:49:48.427Z,48.27
2017-09-20T00:49:52.666Z,47.70
2017-09-20T00:49:56.927Z,47.50
2017-09-20T00:50:01.176Z,47.40
2017-09-20T00:50:05.436Z,47.20
2017-09-20T00:50:10.424Z,47.35
2017-09-20T00:50:15.463Z,47.60
2017-09-20T00:50:19.713Z,47.60
2017-09-20T00:50:23.953Z,47.50
2017-09-20T00:50:28.223Z,47.80
2017-09-20T00:50:32.474Z,48.10
2017-09-20T00:50:36.714Z,48.05
2017-09-20T00:50:40.968Z,48.00
2017-09-20T00:50:45.213Z,48.40
2017-09-20T00:50:50.349Z,48.75
2017-09-20T00:50:54.658Z,49.03
2017-09-20T00:50:58.902Z,49.45
2017-09-20T00:51:03.197Z,49.60
2017-09-20T00:51:07.420Z,49.90
2017-09-20T00:51:11.678Z,49.95
2017-09-20T00:51:15.939Z,50.57
2017-09-20T00:51:20.192Z,51.15
2017-09-20T00:51:24.443Z,51.50
2017-09-20T00:51:28.696Z,51.40
2017-09-20T00:51:32.954Z,51.30
2017-09-20T00:51:37.983Z,51.40
2017-09-20T00:51:43.011Z,51.40
2017-09-20T00:51:48.043Z,51.40
2017-09-20T00:51:52.295Z,51.50
2017-09-20T00:51:56.551Z,51.80
2017-09-20T00:52:00.819Z,51.80
2017-09-20T00:52:05.835Z,51.75
2017-09-20T00:52:10.853Z,51.57
2017-09-20T00:52:17.014Z,51.43
2017-09-20T00:52:21.253Z,51.13
2017-09-20T00:52:25.500Z,51.05
2017-09-20T00:52:30.515Z,51.30
2017-09-20T00:52:35.541Z,51.43
2017-09-20T00:52:40.561Z,51.43
2017-09-20T00:52:44.810Z,51.50
2017-09-20T00:52:49.831Z,51.50
2017-09-20T00:52:54.176Z,51.30
2017-09-20T00:52:58.444Z,51.50
2017-09-20T00:53:02.711Z,51.80
2017-09-20T00:53:06.969Z,52.00
2017-09-20T00:53:11.224Z,52.00
2017-09-20T00:53:15.491Z,52.20
2017-09-20T00:53:19.734Z,52.65
2017-09-20T00:53:23.973Z,53.10
2017-09-20T00:53:28.984Z,52.95
2017-09-20T00:53:34.009Z,52.90
2017-09-20T00:53:39.021Z,52.83
2017-09-20T00:53:44.036Z,52.73
2017-09-20T00:53:48.322Z,52.63
2017-09-20T00:53:52.561Z,52.25
2017-09-20T00:53:56.806Z,51.85
2017-09-20T00:54:01.068Z,51.60
2017-09-20T00:54:06.078Z,51.60
2017-09-20T00:54:10.324Z,51.73
2017-09-20T00:54:14.600Z,51.75
2017-09-20T00:54:18.860Z,51.45
2017-09-20T00:54:23.089Z,51.27
2017-09-20T00:54:27.368Z,51.10
2017-09-20T00:54:32.385Z,51.50
2017-09-20T00:54:37.390Z,51.43
2017-09-20T00:54:41.633Z,51.10
2017-09-20T00:54:45.876Z,51.15
2017-09-20T00:54:50.147Z,51.60
2017-09-20T00:54:55.261Z,52.10
2017-09-20T00:54:59.523Z,52.00
2017-09-20T00:55:04.530Z,51.90
2017-09-20T00:55:08.774Z,51.67
2017-09-20T00:55:13.037Z,51.70
2017-09-20T00:55:18.075Z,51.60
2017-09-20T00:55:22.313Z,51.40
2017-09-20T00:55:26.575Z,51.65
2017-09-20T00:55:30.855Z,51.80
2017-09-20T00:55:35.899Z,51.80
2017-09-20T00:55:40.155Z,52.13
2017-09-20T00:55:44.424Z,52.25
2017-09-20T00:55:48.678Z,52.25
2017-09-20T00:55:53.700Z,52.37
2017-09-20T00:55:58.708Z,52.37
2017-09-20T00:56:02.955Z,52.40
2017-09-20T00:56:07.208Z,52.45
2017-09-20T00:56:12.239Z,52.20
2017-09-20T00:56:16.501Z,52.40
2017-09-20T00:56:20.753Z,52.80
2017-09-20T00:56:25.013Z,52.65
2017-09-20T00:56:29.253Z,52.35
2017-09-20T00:56:33.507Z,52.60
2017-09-20T00:56:37.768Z,52.30
2017-09-20T00:56:42.007Z,52.35
2017-09-20T00:56:46.245Z,52.70
2017-09-20T00:56:50.496Z,52.67
2017-09-20T00:56:54.725Z,52.70
2017-09-20T00:56:59.750Z,52.70
2017-09-20T00:57:04.752Z,52.70
2017-09-20T00:57:09.000Z,52.90
2017-09-20T00:57:13.255Z,53.25
2017-09-20T00:57:17.542Z,53.10
2017-09-20T00:57:21.805Z,53.10
2017-09-20T00:57:26.059Z,52.90